Time;durP1;ratioP1;P1;durP2;ratioP2;P2;SDS_P1;SDS_P2;PMS_P1;PMS_P2;Temp;Humidity;BMP_temperature;BMP_pressure;BME280_temperature;BME280_humidity;BME280_pressure;Samples;Min_cycle;Max_cycle;Signal;HPM_P1;HPM_P2
2024/03/25 00:00:24;;;;;;;18.77;5.13;;;5.10;99.90;;;;;;4942371;28;20118;-63
2024/03/25 00:02:51;;;;;;;27.23;5.45;;;5.10;99.90;;;;;;4942808;28;20170;-63
2024/03/25 00:05:22;;;;;;;16.25;5.57;;;5.10;99.90;;;;;;4937554;28;20027;-63
2024/03/25 00:07:48;;;;;;;14.10;4.05;;;5.10;99.90;;;;;;4942484;28;20023;-63
2024/03/25 00:10:14;;;;;;;16.65;4.38;;;5.10;99.90;;;;;;4941340;28;20027;-64
2024/03/25 00:12:40;;;;;;;16.23;3.80;;;5.10;99.90;;;;;;4945592;28;20547;-64
2024/03/25 00:15:06;;;;;;;14.32;4.40;;;5.10;99.90;;;;;;4939917;28;20299;-63
2024/03/25 00:17:31;;;;;;;17.88;4.80;;;5.10;99.90;;;;;;4948571;28;20367;-63
2024/03/25 00:19:57;;;;;;;18.25;4.63;;;5.10;99.90;;;;;;4943311;28;20038;-64
2024/03/25 00:22:27;;;;;;;24.35;5.15;;;5.10;99.90;;;;;;4943282;28;20487;-65
2024/03/25 00:24:53;;;;;;;19.75;4.32;;;5.10;99.90;;;;;;4947880;28;20512;-65
2024/03/25 00:27:18;;;;;;;17.38;4.68;;;5.10;99.90;;;;;;4943111;28;20106;-65
2024/03/25 00:29:44;;;;;;;14.80;3.92;;;5.10;99.90;;;;;;4940186;28;20019;-63
2024/03/25 00:32:10;;;;;;;18.42;3.95;;;5.10;99.90;;;;;;4937602;29;20020;-64
2024/03/25 00:34:36;;;;;;;21.92;5.22;;;5.00;99.90;;;;;;4938017;28;20035;-64
2024/03/25 00:37:03;;;;;;;11.75;3.65;;;5.00;99.90;;;;;;4957353;28;20031;-65
2024/03/25 00:39:32;;;;;;;14.23;4.95;;;4.90;99.90;;;;;;4947654;28;20033;-65
2024/03/25 00:41:57;;;;;;;19.95;5.90;;;4.80;99.90;;;;;;4937091;28;20067;-65
2024/03/25 00:44:23;;;;;;;27.65;6.35;;;4.80;99.90;;;;;;4937912;28;20470;-65
2024/03/25 00:46:49;;;;;;;26.50;5.65;;;4.80;99.90;;;;;;4943018;28;20080;-65
2024/03/25 00:49:15;;;;;;;23.75;5.47;;;4.70;99.90;;;;;;4937804;28;20038;-65
2024/03/25 00:51:41;;;;;;;26.08;6.07;;;4.70;99.90;;;;;;4935550;28;20398;-65
2024/03/25 00:54:07;;;;;;;25.70;6.90;;;4.70;99.90;;;;;;4947233;29;20152;-65
2024/03/25 00:56:32;;;;;;;21.98;6.88;;;4.70;99.90;;;;;;4938178;28;20043;-65
2024/03/25 00:59:02;;;;;;;31.13;7.38;;;4.70;99.90;;;;;;4946605;28;20027;-65
2024/03/25 01:01:31;;;;;;;18.90;6.00;;;4.70;99.90;;;;;;4940396;28;20019;-65
2024/03/25 01:03:57;;;;;;;23.73;7.80;;;4.70;99.90;;;;;;4940089;29;20015;-65
2024/03/25 01:06:23;;;;;;;17.70;5.78;;;4.70;99.90;;;;;;4940791;28;20050;-65
2024/03/25 01:08:49;;;;;;;24.42;8.10;;;4.70;99.90;;;;;;4939938;28;20028;-65
2024/03/25 01:11:15;;;;;;;29.60;8.68;;;4.70;99.90;;;;;;4941535;28;20032;-65
2024/03/25 01:13:44;;;;;;;32.45;7.72;;;4.70;99.90;;;;;;4938884;29;20042;-67
2024/03/25 01:16:09;;;;;;;24.88;8.48;;;6.10;99.90;;;;;;4941047;29;20019;-66
2024/03/25 01:18:35;;;;;;;33.75;9.20;;;4.60;99.90;;;;;;4940498;28;20458;-66
2024/03/25 01:21:01;;;;;;;26.60;8.75;;;4.60;99.90;;;;;;4942127;28;20077;-65
2024/03/25 01:23:27;;;;;;;24.35;6.05;;;4.60;99.90;;;;;;4940530;28;20035;-66
2024/03/25 01:25:52;;;;;;;29.75;9.68;;;4.60;99.90;;;;;;4946500;28;20064;-66
2024/03/25 01:28:18;;;;;;;27.58;7.85;;;4.60;99.90;;;;;;4956674;28;20054;-66
2024/03/25 01:30:43;;;;;;;14.57;5.13;;;4.60;99.90;;;;;;4941624;28;20475;-66
2024/03/25 01:33:09;;;;;;;36.28;11.75;;;4.50;99.90;;;;;;4937366;29;20036;-66
2024/03/25 01:35:35;;;;;;;21.35;7.28;;;4.50;99.90;;;;;;4945803;28;20063;-66
2024/03/25 01:38:01;;;;;;;44.55;10.68;;;4.50;99.90;;;;;;4947803;28;20074;-66
2024/03/25 01:40:26;;;;;;;34.38;9.63;;;4.50;99.90;;;;;;4958637;28;20418;-67
2024/03/25 01:43:10;;;;;;;25.05;8.82;;;4.50;99.90;;;;;;4939723;28;20077;-66
2024/03/25 01:45:36;;;;;;;27.10;6.15;;;4.50;99.90;;;;;;4947507;28;20028;-66
2024/03/25 01:48:09;;;;;;;37.63;10.30;;;5.80;99.90;;;;;;4940592;29;20028;-67
2024/03/25 01:50:38;;;;;;;31.52;11.18;;;4.50;99.90;;;;;;4944592;28;20023;-66
2024/03/25 01:53:04;;;;;;;38.80;13.13;;;4.50;99.90;;;;;;4940882;28;20313;-65
2024/03/25 01:55:34;;;;;;;37.58;10.38;;;4.50;99.90;;;;;;4943896;29;20039;-65
2024/03/25 01:58:01;;;;;;;43.55;14.93;;;4.50;99.90;;;;;;4961419;28;20062;-66
2024/03/25 02:00:27;;;;;;;39.03;11.63;;;4.50;99.90;;;;;;4941809;29;20043;-65
2024/03/25 02:02:53;;;;;;;35.65;9.50;;;4.40;99.90;;;;;;4942079;28;20388;-65
2024/03/25 02:05:20;;;;;;;30.50;11.05;;;4.40;99.90;;;;;;4942244;28;20031;-65
2024/03/25 02:07:46;;;;;;;52.90;13.30;;;4.40;99.90;;;;;;4949018;29;20584;-65
2024/03/25 02:10:16;;;;;;;39.88;11.73;;;4.40;99.90;;;;;;4943720;28;20024;-66
2024/03/25 02:12:42;;;;;;;29.30;10.13;;;4.40;99.90;;;;;;4944551;28;20509;-65
2024/03/25 02:15:09;;;;;;;32.15;7.90;;;4.40;99.90;;;;;;4958739;28;20024;-65
2024/03/25 02:17:35;;;;;;;19.23;5.65;;;4.30;99.90;;;;;;4941102;28;20505;-65
2024/03/25 02:20:05;;;;;;;34.22;9.15;;;4.30;99.90;;;;;;4949966;28;20085;-65
2024/03/25 02:22:32;;;;;;;33.58;10.02;;;4.30;99.90;;;;;;4941558;28;20028;-65
2024/03/25 02:24:59;;;;;;;23.75;6.90;;;4.30;99.90;;;;;;4944989;29;20062;-66
2024/03/25 02:27:25;;;;;;;38.58;10.05;;;4.30;99.90;;;;;;4949537;28;20488;-66
2024/03/25 02:29:51;;;;;;;36.75;10.73;;;4.30;99.90;;;;;;4946197;28;20102;-66
2024/03/25 02:32:16;;;;;;;32.67;10.00;;;4.80;99.90;;;;;;4949216;29;20573;-65
2024/03/25 02:34:48;;;;;;;34.85;9.88;;;4.30;99.90;;;;;;4949750;28;20054;-66
2024/03/25 02:37:13;;;;;;;40.85;10.90;;;4.30;99.90;;;;;;4955752;28;20032;-66
2024/03/25 02:39:39;;;;;;;40.95;11.93;;;4.40;99.90;;;;;;4965035;28;20043;-66
2024/03/25 02:42:05;;;;;;;39.42;9.68;;;4.40;99.90;;;;;;4943876;28;20107;-65
2024/03/25 02:44:32;;;;;;;40.80;10.55;;;4.50;99.90;;;;;;4939686;28;20059;-66
2024/03/25 02:46:59;;;;;;;42.80;10.65;;;4.40;99.90;;;;;;4942280;29;20031;-65
2024/03/25 02:49:25;;;;;;;27.92;8.80;;;4.40;99.90;;;;;;4942033;28;20027;-65
2024/03/25 02:51:51;;;;;;;45.78;10.88;;;4.30;99.90;;;;;;4942214;28;20044;-66
2024/03/25 02:54:16;;;;;;;43.03;9.95;;;4.30;99.90;;;;;;4942159;28;20055;-65
2024/03/25 02:56:42;;;;;;;40.63;9.25;;;4.40;99.90;;;;;;4940459;29;20047;-66
2024/03/25 02:59:08;;;;;;;43.53;10.98;;;4.40;99.90;;;;;;4948929;28;20098;-65
2024/03/25 03:01:34;;;;;;;23.95;7.70;;;4.40;99.90;;;;;;4940947;28;20107;-66
2024/03/25 03:03:59;;;;;;;36.95;9.45;;;4.30;99.90;;;;;;4943871;28;20050;-66
2024/03/25 03:06:25;;;;;;;46.03;11.30;;;4.30;99.90;;;;;;4941369;28;20475;-66
2024/03/25 03:08:50;;;;;;;39.97;8.10;;;4.30;99.90;;;;;;4949711;29;20166;-66
2024/03/25 03:11:16;;;;;;;20.33;6.38;;;4.30;99.90;;;;;;4942985;28;20500;-66
2024/03/25 03:13:41;;;;;;;35.00;8.20;;;4.20;99.90;;;;;;4942117;28;20032;-66
2024/03/25 03:16:07;;;;;;;30.38;8.98;;;4.30;99.90;;;;;;4943334;28;20102;-66
2024/03/25 03:18:33;;;;;;;32.80;8.90;;;4.30;99.90;;;;;;4944783;29;20502;-66
2024/03/25 03:20:58;;;;;;;31.58;7.20;;;4.30;99.90;;;;;;4959518;28;20097;-66
2024/03/25 03:23:24;;;;;;;23.73;6.88;;;4.30;99.90;;;;;;4943237;29;20031;-66
2024/03/25 03:25:49;;;;;;;23.75;5.80;;;4.30;99.90;;;;;;4942169;28;20040;-66
2024/03/25 03:28:17;;;;;;;32.40;7.15;;;4.30;99.90;;;;;;4945351;28;20110;-66
2024/03/25 03:30:42;;;;;;;35.38;5.47;;;4.30;99.90;;;;;;4949555;28;20078;-66
2024/03/25 03:33:08;;;;;;;20.30;5.25;;;4.30;99.90;;;;;;4943697;28;20470;-66
2024/03/25 03:35:34;;;;;;;30.40;5.88;;;4.30;99.90;;;;;;4950831;28;20036;-66
2024/03/25 03:37:59;;;;;;;28.73;7.82;;;4.20;99.90;;;;;;4959093;28;20031;-66
2024/03/25 03:40:25;;;;;;;23.35;6.05;;;4.30;99.90;;;;;;4954076;28;20121;-66
2024/03/25 03:42:50;;;;;;;29.15;8.15;;;4.20;99.90;;;;;;4952888;28;20030;-66
2024/03/25 03:45:16;;;;;;;33.25;8.27;;;4.30;99.90;;;;;;4956044;28;20047;-66
2024/03/25 03:47:42;;;;;;;33.00;7.53;;;4.20;99.90;;;;;;4952731;28;20019;-66
2024/03/25 03:50:08;;;;;;;41.97;11.32;;;4.20;99.90;;;;;;4951781;28;20067;-66
2024/03/25 03:52:33;;;;;;;27.10;7.90;;;4.20;99.90;;;;;;4939121;28;20035;-66
2024/03/25 03:54:59;;;;;;;34.08;8.60;;;4.20;99.90;;;;;;4944083;28;20047;-66
2024/03/25 03:57:28;;;;;;;30.00;9.93;;;4.20;99.90;;;;;;4948543;28;20390;-65
2024/03/25 03:59:53;;;;;;;29.63;8.50;;;4.20;99.90;;;;;;4948848;28;20032;-65
2024/03/25 04:02:20;;;;;;;29.35;10.90;;;4.20;99.90;;;;;;4939575;28;20081;-65
2024/03/25 04:04:46;;;;;;;26.10;7.90;;;4.20;99.90;;;;;;4953938;28;20166;-65
2024/03/25 04:07:11;;;;;;;38.28;10.40;;;4.20;99.90;;;;;;4941396;28;20475;-65
2024/03/25 04:09:37;;;;;;;36.67;10.65;;;4.20;99.90;;;;;;4943075;29;20035;-66
2024/03/25 04:12:02;;;;;;;44.97;11.55;;;4.10;99.90;;;;;;4939018;28;20032;-65
2024/03/25 04:14:28;;;;;;;24.40;7.95;;;4.20;99.90;;;;;;4949721;28;20413;-65
2024/03/25 04:16:54;;;;;;;40.40;10.57;;;4.10;99.90;;;;;;4939424;28;20093;-65
2024/03/25 04:19:24;;;;;;;36.03;9.13;;;4.10;99.90;;;;;;4942194;29;20037;-65
2024/03/25 04:21:49;;;;;;;33.70;7.30;;;4.10;99.90;;;;;;4946181;28;20142;-65
2024/03/25 04:24:15;;;;;;;39.90;10.45;;;4.10;99.90;;;;;;4940576;29;20106;-65
2024/03/25 04:26:40;;;;;;;35.03;10.40;;;4.10;99.90;;;;;;4946180;29;20023;-65
2024/03/25 04:29:06;;;;;;;36.53;10.18;;;4.10;99.90;;;;;;4945266;28;20634;-65
2024/03/25 04:31:31;;;;;;;32.95;10.15;;;4.00;99.90;;;;;;4939999;29;20030;-65
2024/03/25 04:33:57;;;;;;;39.67;10.80;;;4.00;99.90;;;;;;4942699;29;20050;-65
2024/03/25 04:36:23;;;;;;;41.78;10.60;;;4.00;99.90;;;;;;4945090;28;20041;-65
2024/03/25 04:38:48;;;;;;;35.92;10.85;;;4.00;99.90;;;;;;4945760;28;20102;-65
2024/03/25 04:41:14;;;;;;;38.70;11.13;;;3.90;99.90;;;;;;4938621;28;20390;-65
2024/03/25 04:43:39;;;;;;;26.05;9.00;;;3.90;99.90;;;;;;4938939;28;20035;-65
2024/03/25 04:46:05;;;;;;;37.50;11.48;;;3.80;99.90;;;;;;4948536;28;20027;-65
2024/03/25 04:48:30;;;;;;;19.65;6.35;;;3.80;99.90;;;;;;4949042;28;20047;-65
2024/03/25 04:50:56;;;;;;;28.88;8.35;;;3.60;99.90;;;;;;4943100;29;20066;-65
2024/03/25 04:53:22;;;;;;;36.05;10.52;;;3.60;99.90;;;;;;4941581;28;20383;-65
2024/03/25 04:55:47;;;;;;;42.10;10.77;;;3.60;99.90;;;;;;4943584;28;20046;-65
2024/03/25 04:58:13;;;;;;;33.15;9.82;;;3.50;99.90;;;;;;4942047;28;20261;-65
2024/03/25 05:00:38;;;;;;;44.47;11.35;;;3.30;99.90;;;;;;4940328;29;20401;-65
2024/03/25 05:03:05;;;;;;;36.50;10.40;;;3.30;99.90;;;;;;4951855;28;20071;-65
2024/03/25 05:05:30;;;;;;;35.55;10.38;;;3.20;99.90;;;;;;4938809;29;20490;-65
2024/03/25 05:07:56;;;;;;;41.95;11.60;;;3.20;99.90;;;;;;4940298;28;20032;-65
2024/03/25 05:10:21;;;;;;;34.80;10.98;;;3.10;99.90;;;;;;4937719;28;20484;-65
2024/03/25 05:12:49;;;;;;;46.72;11.23;;;3.10;99.90;;;;;;4935391;28;20031;-65
2024/03/25 05:15:15;;;;;;;38.47;10.93;;;3.10;99.90;;;;;;4944046;29;20032;-65
2024/03/25 05:17:41;;;;;;;46.55;11.85;;;3.00;99.90;;;;;;4936067;29;20036;-63
2024/03/25 05:20:07;;;;;;;44.30;12.05;;;2.80;99.90;;;;;;4936766;29;20475;-64
2024/03/25 05:22:32;;;;;;;35.05;11.13;;;2.70;99.90;;;;;;4945333;28;20039;-64
2024/03/25 05:24:58;;;;;;;44.05;12.45;;;2.60;99.90;;;;;;4949292;28;20046;-64
2024/03/25 05:27:23;;;;;;;35.05;11.38;;;2.60;99.90;;;;;;4944055;28;20039;-64
2024/03/25 05:29:49;;;;;;;35.10;10.32;;;2.50;99.90;;;;;;4950368;28;20086;-64
2024/03/25 05:32:17;;;;;;;35.17;10.48;;;2.30;99.90;;;;;;4942578;28;20031;-64
2024/03/25 05:34:42;;;;;;;41.58;11.88;;;2.40;99.90;;;;;;4950177;29;20459;-64
2024/03/25 05:37:08;;;;;;;40.33;11.45;;;2.60;99.90;;;;;;4949285;28;20106;-64
2024/03/25 05:39:34;;;;;;;39.33;11.55;;;2.70;99.90;;;;;;4971372;28;20097;-63
2024/03/25 05:41:59;;;;;;;46.75;12.82;;;2.70;99.90;;;;;;4952719;28;20489;-63
2024/03/25 05:44:25;;;;;;;49.47;11.95;;;2.80;99.90;;;;;;4945699;28;20046;-64
2024/03/25 05:46:50;;;;;;;38.28;11.23;;;2.80;99.90;;;;;;4946403;29;20043;-64
2024/03/25 05:49:16;;;;;;;43.50;10.90;;;2.80;99.90;;;;;;4951796;28;20027;-64
2024/03/25 05:51:42;;;;;;;36.85;11.50;;;2.70;99.90;;;;;;4946166;28;20027;-63
2024/03/25 05:54:07;;;;;;;40.38;10.93;;;2.70;99.90;;;;;;4960005;28;20485;-64
2024/03/25 05:56:34;;;;;;;46.10;11.60;;;2.60;99.90;;;;;;4943700;28;20034;-65
2024/03/25 05:59:00;;;;;;;35.10;9.38;;;2.70;99.90;;;;;;4950922;28;20074;-64
2024/03/25 06:01:26;;;;;;;39.58;11.68;;;2.80;99.90;;;;;;4945723;28;20055;-64
2024/03/25 06:03:52;;;;;;;38.17;10.63;;;2.70;99.90;;;;;;4950478;28;20028;-64
2024/03/25 06:06:17;;;;;;;39.28;9.40;;;2.70;99.90;;;;;;4945122;28;20027;-64
2024/03/25 06:08:43;;;;;;;28.83;9.43;;;2.60;99.90;;;;;;4953464;28;20511;-65
2024/03/25 06:11:09;;;;;;;46.17;11.20;;;2.60;99.90;;;;;;4951405;28;20027;-64
2024/03/25 06:13:34;;;;;;;46.30;11.07;;;2.60;99.90;;;;;;4950812;28;20034;-64
2024/03/25 06:16:00;;;;;;;37.95;10.00;;;2.80;99.90;;;;;;4952229;28;20053;-64
2024/03/25 06:18:26;;;;;;;36.42;10.18;;;2.80;99.90;;;;;;4944505;28;20039;-65
2024/03/25 06:20:52;;;;;;;42.67;10.60;;;2.90;99.90;;;;;;4948298;28;20348;-64
2024/03/25 06:23:25;;;;;;;42.75;10.32;;;3.00;99.90;;;;;;4953775;28;20032;-66
2024/03/25 06:25:52;;;;;;;38.25;11.00;;;3.10;99.90;;;;;;4947402;28;20031;-64
2024/03/25 06:28:19;;;;;;;24.60;8.20;;;3.20;99.90;;;;;;4944810;28;20042;-64
2024/03/25 06:36:18;;;;;;;35.50;9.10;;;3.60;99.90;;;;;;4968769;28;20042;-64
2024/03/25 06:38:44;;;;;;;33.65;8.80;;;3.70;99.90;;;;;;4951249;28;20031;-64
2024/03/25 06:41:10;;;;;;;31.70;10.45;;;3.70;99.90;;;;;;4949949;28;20059;-64
2024/03/25 06:43:39;;;;;;;42.60;9.23;;;3.70;99.90;;;;;;4943416;28;20450;-64
2024/03/25 06:46:06;;;;;;;34.78;9.73;;;3.60;99.90;;;;;;4939598;28;20028;-64
2024/03/25 06:48:31;;;;;;;36.47;9.75;;;3.60;99.90;;;;;;4945891;28;20138;-64
2024/03/25 06:50:58;;;;;;;29.75;8.38;;;3.50;99.90;;;;;;4947002;28;20028;-65
2024/03/25 06:53:25;;;;;;;40.85;8.80;;;3.50;99.90;;;;;;4945836;28;20035;-64
2024/03/25 06:56:01;;;;;;;30.48;7.40;;;3.50;99.90;;;;;;4945082;28;20395;-64
2024/03/25 06:58:27;;;;;;;31.98;9.77;;;3.60;99.90;;;;;;4945914;28;20081;-64
2024/03/25 07:00:54;;;;;;;31.95;9.70;;;3.60;99.90;;;;;;4943324;28;20027;-64
2024/03/25 07:03:21;;;;;;;32.30;10.20;;;3.60;99.90;;;;;;4940579;28;20040;-64
2024/03/25 07:05:48;;;;;;;36.03;9.27;;;3.50;99.90;;;;;;4942814;28;20038;-64
2024/03/25 07:08:14;;;;;;;34.67;9.80;;;3.60;99.90;;;;;;4944565;29;20028;-64
2024/03/25 07:10:44;;;;;;;40.47;9.82;;;3.60;99.90;;;;;;4943041;28;20023;-64
2024/03/25 07:13:10;;;;;;;27.37;7.17;;;3.80;99.90;;;;;;4942644;28;20473;-64
2024/03/25 07:15:35;;;;;;;28.35;7.32;;;3.90;99.90;;;;;;4949989;28;20118;-64
2024/03/25 07:18:01;;;;;;;26.88;6.50;;;6.10;99.90;;;;;;4945288;29;20023;-64
2024/03/25 07:20:26;;;;;;;27.85;7.63;;;4.30;99.90;;;;;;4952598;28;20065;-64
2024/03/25 07:22:56;;;;;;;25.58;6.68;;;4.40;99.90;;;;;;4950033;28;20030;-65
2024/03/25 07:25:25;;;;;;;26.00;6.03;;;4.60;99.90;;;;;;4952583;28;20032;-65
2024/03/25 07:27:52;;;;;;;12.80;4.15;;;4.70;99.90;;;;;;4946148;28;20019;-65
2024/03/25 07:30:18;;;;;;;17.42;4.45;;;4.70;99.90;;;;;;4944354;29;20027;-65
2024/03/25 07:32:47;;;;;;;26.88;6.15;;;4.80;99.90;;;;;;4945314;28;20045;-65
2024/03/25 07:35:16;;;;;;;30.63;5.85;;;4.90;99.90;;;;;;4940529;28;20485;-65
2024/03/25 07:37:42;;;;;;;25.45;6.15;;;5.00;99.90;;;;;;4958196;28;20031;-65
2024/03/25 07:40:17;;;;;;;24.70;5.85;;;5.00;99.90;;;;;;4939085;28;20823;-62
2024/03/25 07:42:43;;;;;;;23.95;5.65;;;;;;;;;;4940317;29;20115;-64
2024/03/25 07:45:09;;;;;;;21.13;5.68;;;5.00;99.90;;;;;;4943333;28;20493;-63
2024/03/25 07:47:34;;;;;;;27.60;5.60;;;5.10;99.90;;;;;;4950252;28;20047;-63
2024/03/25 07:50:01;;;;;;;18.25;5.50;;;5.10;99.90;;;;;;4941738;28;20039;-63
2024/03/25 07:52:27;;;;;;;18.88;5.93;;;5.10;99.90;;;;;;4941374;28;20027;-63
2024/03/25 07:54:53;;;;;;;24.15;4.38;;;5.10;99.90;;;;;;4948449;28;20122;-62
2024/03/25 07:57:19;;;;;;;24.90;5.68;;;5.20;99.90;;;;;;4941396;28;20123;-63
2024/03/25 07:59:45;;;;;;;26.52;6.18;;;5.20;99.90;;;;;;4945938;28;20028;-63
2024/03/25 08:02:11;;;;;;;22.15;6.40;;;5.30;99.90;;;;;;4942943;28;20521;-63
2024/03/25 08:04:36;;;;;;;25.40;5.80;;;5.40;99.90;;;;;;4939393;29;20056;-63
2024/03/25 08:07:02;;;;;;;24.55;6.22;;;5.60;99.90;;;;;;4942635;29;20071;-62
2024/03/25 08:09:28;;;;;;;25.20;6.25;;;5.60;99.90;;;;;;4939350;28;20027;-63
2024/03/25 08:11:54;;;;;;;21.50;5.93;;;5.70;99.90;;;;;;4941593;28;20070;-64
2024/03/25 08:14:20;;;;;;;18.60;5.63;;;5.80;99.90;;;;;;4952796;28;20031;-63
2024/03/25 08:16:45;;;;;;;19.05;5.45;;;5.90;99.90;;;;;;4949852;29;20520;-63
2024/03/25 08:19:11;;;;;;;16.48;3.80;;;6.00;99.90;;;;;;4948920;28;20032;-63
2024/03/25 08:21:37;;;;;;;24.60;5.68;;;6.00;99.90;;;;;;4945227;28;20032;-63
2024/03/25 08:24:03;;;;;;;19.02;5.38;;;6.10;99.90;;;;;;4946205;28;20473;-63
2024/03/25 08:26:28;;;;;;;20.83;5.63;;;6.20;99.90;;;;;;4934279;28;20059;-63
2024/03/25 08:28:54;;;;;;;24.65;5.35;;;6.50;99.90;;;;;;4945688;28;20077;-63
2024/03/25 08:31:19;;;;;;;13.73;3.92;;;6.80;99.90;;;;;;4961997;28;20103;-63
2024/03/25 08:33:45;;;;;;;14.30;3.47;;;7.30;99.90;;;;;;4941679;28;20027;-63
2024/03/25 08:36:10;;;;;;;10.50;3.25;;;7.70;99.90;;;;;;4940158;29;20032;-64
2024/03/25 08:38:36;;;;;;;14.50;4.28;;;8.10;99.90;;;;;;4958355;28;20044;-63
2024/03/25 08:41:02;;;;;;;13.50;3.80;;;8.30;99.90;;;;;;4940082;28;20490;-64
2024/03/25 08:43:28;;;;;;;11.10;2.83;;;8.50;99.90;;;;;;4941126;29;20034;-64
2024/03/25 08:45:53;;;;;;;16.48;3.58;;;8.40;99.90;;;;;;4945502;28;20398;-63
2024/03/25 08:48:19;;;;;;;12.93;3.30;;;8.20;99.90;;;;;;4943320;28;20450;-62
2024/03/25 08:50:45;;;;;;;15.00;2.90;;;8.00;99.90;;;;;;4939449;29;20027;-62
2024/03/25 08:53:10;;;;;;;10.98;2.75;;;8.20;99.90;;;;;;4940751;28;20447;-63
2024/03/25 08:55:36;;;;;;;11.10;3.22;;;8.50;99.90;;;;;;4945180;29;20532;-62
2024/03/25 08:58:01;;;;;;;;;;;9.10;99.90;;;;;;4946548;28;20032;-64
2024/03/25 09:00:27;;;;;;;11.40;2.67;;;10.00;99.90;;;;;;4941590;29;19910;-65
2024/03/25 09:02:56;;;;;;;12.23;2.67;;;11.00;99.90;;;;;;4938051;28;20039;-65
2024/03/25 09:05:22;;;;;;;23.17;2.92;;;11.80;99.90;;;;;;4939738;29;20106;-63
2024/03/25 09:07:52;;;;;;;12.27;2.55;;;12.10;99.90;;;;;;4946500;29;20114;-63
2024/03/25 09:13:05;;;;;;;6.65;1.60;;;12.00;99.90;;;;;;4938862;29;20042;-63
2024/03/25 09:15:30;;;;;;;9.75;2.22;;;11.50;99.90;;;;;;4946504;28;20044;-63
2024/03/25 09:17:56;;;;;;;10.10;1.98;;;10.90;99.90;;;;;;4935269;28;20032;-63
2024/03/25 09:20:23;;;;;;;8.13;2.00;;;10.20;99.90;;;;;;4942709;28;20027;-63
2024/03/25 09:22:48;;;;;;;9.82;2.03;;;9.60;99.90;;;;;;4943940;29;20039;-63
2024/03/25 09:25:15;;;;;;;12.88;2.50;;;9.30;99.90;;;;;;4939871;29;20039;-63
2024/03/25 09:27:45;;;;;;;11.05;1.80;;;9.30;99.90;;;;;;4943105;28;20504;-63
2024/03/25 09:30:11;;;;;;;11.98;2.78;;;9.40;99.90;;;;;;4940444;28;20034;-62
2024/03/25 09:32:37;;;;;;;9.25;1.73;;;9.40;99.90;;;;;;4938228;29;20542;-62
2024/03/25 09:35:03;;;;;;;9.48;2.25;;;9.30;99.90;;;;;;4940628;28;20536;-62
2024/03/25 09:37:29;;;;;;;14.70;2.60;;;9.10;99.90;;;;;;4948676;28;20406;-62
2024/03/25 09:39:55;;;;;;;14.65;2.30;;;8.80;99.90;;;;;;4943653;28;20057;-62
2024/03/25 09:42:47;;;;;;;12.50;2.78;;;8.70;99.90;;;;;;4936798;28;20394;-63
2024/03/25 09:45:15;;;;;;;11.02;2.58;;;8.80;99.90;;;;;;4947961;28;20078;-61
2024/03/25 09:47:45;;;;;;;12.85;2.67;;;8.90;99.90;;;;;;4938576;29;20031;-60
2024/03/25 09:50:21;;;;;;;15.50;2.40;;;8.90;99.90;;;;;;4939851;28;20119;-60
2024/03/25 09:52:50;;;;;;;19.63;3.13;;;8.90;99.90;;;;;;4939543;28;20153;-61
2024/03/25 09:55:16;;;;;;;11.73;2.58;;;8.80;99.90;;;;;;4938461;28;20031;-61
2024/03/25 09:57:45;;;;;;;13.23;2.97;;;8.90;99.90;;;;;;4941668;28;20035;-60
2024/03/25 10:00:11;;;;;;;12.02;2.55;;;9.10;99.90;;;;;;4939302;28;20077;-61
2024/03/25 10:02:39;;;;;;;10.20;2.38;;;9.20;99.90;;;;;;4940458;28;20039;-61
2024/03/25 10:05:05;;;;;;;14.77;2.58;;;9.50;99.90;;;;;;4937717;28;20020;-61
2024/03/25 10:07:31;;;;;;;11.88;3.13;;;10.30;99.90;;;;;;4939327;28;20031;-61
2024/03/25 10:09:58;;;;;;;12.48;2.55;;;11.40;99.90;;;;;;4938926;29;20109;-66
2024/03/25 10:12:24;;;;;;;14.10;2.90;;;11.50;99.90;;;;;;4944227;28;20106;-59
2024/03/25 10:14:50;;;;;;;12.38;2.25;;;11.10;99.90;;;;;;4941759;28;20390;-59
2024/03/25 10:17:15;;;;;;;9.10;2.17;;;10.60;99.90;;;;;;4942976;29;20027;-60
2024/03/25 10:19:41;;;;;;;10.63;2.15;;;10.10;99.90;;;;;;4943371;28;20122;-59
2024/03/25 10:22:08;;;;;;;15.10;2.75;;;9.50;99.90;;;;;;4943200;28;20046;-60
2024/03/25 10:24:41;;;;;;;8.20;2.38;;;9.10;99.90;;;;;;4940907;29;20089;-59
2024/03/25 10:27:11;;;;;;;15.98;2.85;;;9.00;99.90;;;;;;4940384;29;20121;-59
2024/03/25 10:29:37;;;;;;;13.60;2.22;;;9.00;99.90;;;;;;4945928;28;20032;-59
2024/03/25 10:32:04;;;;;;;9.95;2.38;;;9.00;99.90;;;;;;4943406;28;20486;-59
2024/03/25 10:34:30;;;;;;;8.65;2.03;;;9.10;99.90;;;;;;4940432;29;20031;-60
2024/03/25 10:37:03;;;;;;;8.27;2.40;;;9.20;99.90;;;;;;4950657;28;20038;-59
2024/03/25 10:39:31;;;;;;;12.68;2.83;;;9.30;99.90;;;;;;4950575;28;20032;-59
2024/03/25 10:42:00;;;;;;;12.60;2.72;;;9.50;99.90;;;;;;4947104;28;20038;-60
2024/03/25 10:44:27;;;;;;;12.65;2.83;;;9.60;99.90;;;;;;4940063;28;20126;-60
2024/03/25 10:47:01;;;;;;;18.88;2.03;;;9.80;99.90;;;;;;4941591;29;20027;-58
2024/03/25 10:50:09;;;;;;;11.20;2.38;;;10.00;99.90;;;;;;4937176;29;20032;-60
2024/03/25 10:52:36;;;;;;;8.38;2.15;;;10.50;99.90;;;;;;4943457;28;20035;-60
2024/03/25 10:55:03;;;;;;;7.15;1.50;;;12.00;99.90;;;;;;4939443;29;20543;-61
2024/03/25 10:57:30;;;;;;;7.68;1.90;;;13.40;99.20;;;;;;4947689;28;20042;-60
2024/03/25 10:59:57;;;;;;;13.05;2.00;;;14.10;90.40;;;;;;4942767;28;20111;-60
2024/03/25 11:02:23;;;;;;;9.45;2.38;;;14.00;90.50;;;;;;4942052;28;20704;-59
2024/03/25 11:04:51;;;;;;;8.80;1.70;;;13.60;93.40;;;;;;4946238;28;20414;-60
2024/03/25 11:07:17;;;;;;;10.05;1.90;;;13.80;96.20;;;;;;4942167;29;20027;-60
2024/03/25 11:09:43;;;;;;;12.15;2.38;;;14.50;90.00;;;;;;4939973;28;20982;-61
2024/03/25 11:12:13;;;;;;;9.38;2.03;;;14.80;85.30;;;;;;4946867;28;20031;-62
2024/03/25 11:14:39;;;;;;;4.82;1.50;;;14.90;87.30;;;;;;4944906;29;20037;-62
2024/03/25 11:17:18;;;;;;;9.05;1.48;;;14.60;85.10;;;;;;4942483;28;20027;-62
2024/03/25 11:19:44;;;;;;;9.18;1.60;;;14.40;85.90;;;;;;4938473;28;20690;-62
2024/03/25 11:22:10;;;;;;;8.55;1.58;;;14.20;89.70;;;;;;4946315;29;20038;-61
2024/03/25 11:24:37;;;;;;;5.15;1.42;;;14.00;86.90;;;;;;4943767;29;20479;-61
2024/03/25 11:27:06;;;;;;;7.82;1.40;;;13.90;82.90;;;;;;4936903;28;20032;-62
2024/03/25 11:29:32;;;;;;;12.20;1.65;;;14.40;84.30;;;;;;4940519;28;20070;-61
2024/03/25 11:32:02;;;;;;;8.43;1.63;;;15.20;85.80;;;;;;4940163;28;20058;-60
2024/03/25 11:34:28;;;;;;;8.68;1.60;;;16.20;75.50;;;;;;4934238;29;20032;-71
2024/03/25 11:36:56;;;;;;;;;;;16.90;77.20;;;;;;4943253;28;20028;-60
2024/03/25 11:39:22;;;;;;;7.13;1.30;;;17.50;66.20;;;;;;4944253;28;19989;-60
2024/03/25 11:41:48;;;;;;;8.63;2.05;;;17.40;65.90;;;;;;4952994;28;20715;-61
2024/03/25 11:44:14;;;;;;;7.80;1.45;;;16.90;66.90;;;;;;4949709;28;20027;-60
2024/03/25 11:46:40;;;;;;;6.60;1.40;;;16.40;64.90;;;;;;4948661;28;20047;-60
2024/03/25 11:49:07;;;;;;;10.60;1.83;;;16.00;67.70;;;;;;4962701;28;20037;-61
2024/03/25 11:51:36;;;;;;;6.13;1.42;;;15.70;69.10;;;;;;4950145;28;20023;-61
2024/03/25 11:54:04;;;;;;;6.65;1.58;;;16.00;68.60;;;;;;4942188;29;20135;-61
2024/03/25 11:56:31;;;;;;;8.48;1.63;;;16.60;65.70;;;;;;4929666;28;20031;-61
2024/03/25 11:58:58;;;;;;;6.45;1.63;;;17.10;63.10;;;;;;4940709;28;20039;-60
2024/03/25 12:01:24;;;;;;;8.20;1.40;;;17.80;60.20;;;;;;4940946;28;20043;-61
2024/03/25 12:03:49;;;;;;;8.05;2.65;;;18.60;62.60;;;;;;4938265;28;20750;-61
2024/03/25 12:06:15;;;;;;;8.05;1.58;;;19.10;58.10;;;;;;4940743;29;20040;-61
2024/03/25 12:11:17;;;;;;;10.60;1.95;;;18.80;61.80;;;;;;4940874;29;20116;-61
2024/03/25 12:11:26;;;;;;;7.00;1.63;;;18.10;60.30;;;;;;4939163;28;20035;-61
2024/03/25 12:13:52;;;;;;;6.57;1.30;;;17.50;64.90;;;;;;4941457;28;20034;-60
2024/03/25 12:16:18;;;;;;;9.13;2.03;;;17.60;62.40;;;;;;4938798;29;20098;-60
2024/03/25 12:18:44;;;;;;;5.05;1.25;;;17.60;61.60;;;;;;4941360;28;20161;-60
2024/03/25 12:21:10;;;;;;;5.05;1.33;;;17.50;57.40;;;;;;4930532;28;20073;-61
2024/03/25 12:23:36;;;;;;;7.90;1.60;;;16.50;57.60;;;;;;4937519;28;20043;-60
2024/03/25 12:26:04;;;;;;;11.77;2.70;;;15.40;61.90;;;;;;4935182;28;20367;-60
2024/03/25 12:28:35;;;;;;;6.80;1.55;;;14.80;73.00;;;;;;4940204;28;20452;-60
2024/03/25 12:31:00;;;;;;;7.18;1.75;;;14.60;63.90;;;;;;4939999;28;20486;-60
2024/03/25 12:33:26;;;;;;;7.60;1.75;;;14.10;69.60;;;;;;4937232;28;20035;-59
2024/03/25 12:35:53;;;;;;;14.65;2.08;;;13.90;70.00;;;;;;4960342;28;20044;-62
2024/03/25 12:38:31;;;;;;;7.28;1.50;;;14.30;70.10;;;;;;4943099;28;20034;-61
2024/03/25 12:41:10;;;;;;;9.07;1.63;;;15.30;67.20;;;;;;4943868;28;20637;-59
2024/03/25 12:43:37;;;;;;;6.15;1.40;;;15.80;62.20;;;;;;4938287;28;20074;-61
2024/03/25 12:46:05;;;;;;;10.48;1.65;;;16.10;64.40;;;;;;4942471;28;20019;-61
2024/03/25 12:48:31;;;;;;;8.27;1.80;;;17.20;64.30;;;;;;4936625;28;20039;-60
2024/03/25 12:50:56;;;;;;;5.88;1.50;;;17.40;61.00;;;;;;4940724;28;20032;-59